createdAt,value
2018-09-08T00:00:44.427Z,101043.09
2018-09-08T00:03:14.305Z,101049.30
2018-09-08T00:05:43.788Z,101042.89
2018-09-08T00:08:13.447Z,101046.89
2018-09-08T00:10:43.559Z,101048.75
2018-09-08T00:13:13.085Z,101037.55
2018-09-08T00:15:47.777Z,101031.39
2018-09-08T00:18:22.372Z,101034.23
2018-09-08T00:20:57.257Z,101041.20
2018-09-08T00:23:32.009Z,101043.52
2018-09-08T00:26:07.067Z,101045.23
2018-09-08T00:28:44.147Z,101040.59
2018-09-08T00:31:17.415Z,101043.67
2018-09-08T00:33:47.509Z,101042.00
2018-09-08T00:36:17.614Z,101051.09
2018-09-08T00:38:47.118Z,101051.19
2018-09-08T00:41:16.630Z,101047.77
2018-09-08T00:43:46.324Z,101043.93
2018-09-08T00:46:15.817Z,101043.31
2018-09-08T00:48:45.353Z,101039.89
2018-09-08T00:51:15.107Z,101042.98
2018-09-08T00:53:44.662Z,101042.52
2018-09-08T00:56:14.183Z,101045.45
2018-09-08T00:58:48.870Z,101044.94
2018-09-08T01:01:18.458Z,101045.95
2018-09-08T01:03:48.078Z,101051.11
2018-09-08T01:06:17.721Z,101054.19
2018-09-08T01:08:47.257Z,101057.06
2018-09-08T01:11:16.876Z,101052.42
2018-09-08T01:13:46.427Z,101063.17
2018-09-08T01:16:16.025Z,101066.10
2018-09-08T01:18:45.519Z,101067.87
2018-09-08T01:21:15.162Z,101073.52
2018-09-08T01:23:50.202Z,101070.65
2018-09-08T01:26:20.784Z,101069.43
2018-09-08T01:28:51.482Z,101065.70
2018-09-08T01:31:21.479Z,101078.37
2018-09-08T01:33:51.301Z,101075.38
2018-09-08T01:36:20.890Z,101081.55
2018-09-08T01:38:50.405Z,101077.15
2018-09-08T01:41:19.905Z,101085.57
2018-09-08T01:43:49.415Z,101082.64
2018-09-08T01:46:19.117Z,101083.95
2018-09-08T01:48:48.659Z,101088.09
2018-09-08T01:51:18.176Z,101085.17
2018-09-08T01:53:47.786Z,101098.23
2018-09-08T01:56:17.313Z,101093.74
2018-09-08T01:58:46.870Z,101087.09
2018-09-08T02:01:16.459Z,101087.03
2018-09-08T02:03:46.370Z,101085.72
2018-09-08T02:06:15.890Z,101079.53
2018-09-08T02:08:45.407Z,101083.46
2018-09-08T02:11:15.008Z,101082.16
2018-09-08T02:13:44.543Z,101077.30
2018-09-08T02:16:14.375Z,101074.59
2018-09-08T02:18:43.879Z,101074.42
2018-09-08T02:21:13.367Z,101073.12
2018-09-08T02:23:42.815Z,101077.14
2018-09-08T02:26:12.322Z,101077.05
2018-09-08T02:28:41.784Z,101080.02
2018-09-08T02:31:11.259Z,101079.36
2018-09-08T02:33:40.769Z,101084.86
2018-09-08T02:36:10.698Z,101078.84
2018-09-08T02:38:40.191Z,101078.61
2018-09-08T02:41:09.693Z,101080.77
2018-09-08T02:43:39.289Z,101078.86
2018-09-08T02:46:08.836Z,101079.86
2018-09-08T02:48:38.395Z,101082.94
2018-09-08T02:51:07.516Z,101082.23
2018-09-08T02:53:35.430Z,101085.72
2018-09-08T02:56:03.328Z,101077.44
2018-09-08T02:58:31.219Z,101086.08
2018-09-08T03:00:59.144Z,101089.35
2018-09-08T03:03:27.069Z,101089.26
2018-09-08T03:05:54.980Z,101093.28
2018-09-08T03:08:22.892Z,101094.51
2018-09-08T03:10:50.800Z,101096.37
2018-09-08T03:13:18.706Z,101103.14
2018-09-08T03:15:46.631Z,101096.05
2018-09-08T03:18:14.539Z,101093.34
2018-09-08T03:20:42.484Z,101101.52
2018-09-08T03:23:10.407Z,101094.28
2018-09-08T03:25:38.317Z,101103.23
2018-09-08T03:28:06.237Z,101098.67
2018-09-08T03:30:34.149Z,101102.45
2018-09-08T03:33:02.092Z,101102.91
2018-09-08T03:35:29.990Z,101102.05
2018-09-08T03:37:58.044Z,101107.39
2018-09-08T03:40:25.951Z,101105.31
2018-09-08T03:42:53.878Z,101109.41
2018-09-08T03:45:21.772Z,101112.03
2018-09-08T03:47:49.674Z,101118.64
2018-09-08T03:50:17.603Z,101114.09
2018-09-08T03:52:45.534Z,101102.83
2018-09-08T03:55:13.443Z,101104.59
2018-09-08T03:57:41.353Z,101112.32
2018-09-08T04:00:09.268Z,101119.94
2018-09-08T04:02:38.812Z,101121.56
2018-09-08T04:05:08.329Z,101121.56
2018-09-08T04:07:37.857Z,101121.88
2018-09-08T04:10:07.746Z,101119.31
2018-09-08T04:12:37.247Z,101122.70
2018-09-08T04:15:07.093Z,101123.95
2018-09-08T04:17:36.567Z,101127.04
2018-09-08T04:20:06.443Z,101122.80
2018-09-08T04:22:36.278Z,101127.50
2018-09-08T04:25:06.991Z,101128.27
2018-09-08T04:27:36.696Z,101131.97
2018-09-08T04:30:06.668Z,101128.38
2018-09-08T04:32:36.188Z,101130.80
2018-09-08T04:35:06.038Z,101132.52
2018-09-08T04:37:36.789Z,101130.12
2018-09-08T04:40:06.434Z,101132.83
2018-09-08T04:42:35.959Z,101135.00
2018-09-08T04:45:05.514Z,101131.43
2018-09-08T04:47:35.093Z,101129.41
2018-09-08T04:50:05.091Z,101132.83
2018-09-08T04:52:34.669Z,101127.89
2018-09-08T04:55:04.417Z,101132.69
2018-09-08T04:57:33.886Z,101129.19
2018-09-08T05:00:03.783Z,101138.93
2018-09-08T05:02:33.396Z,101128.05
2018-09-08T05:05:03.086Z,101139.21
2018-09-08T05:07:32.762Z,101146.63
2018-09-08T05:10:02.292Z,101148.02
2018-09-08T05:12:31.834Z,101141.83
2018-09-08T05:15:01.361Z,101157.97
2018-09-08T05:17:31.052Z,101156.20
2018-09-08T05:20:00.659Z,101157.11
2018-09-08T05:22:30.147Z,101158.37
2018-09-08T05:24:59.651Z,101155.97
2018-09-08T05:27:29.215Z,101159.14
2018-09-08T05:29:58.812Z,101160.84
2018-09-08T05:32:28.334Z,101151.67
2018-09-08T05:34:58.814Z,101152.81
2018-09-08T05:37:28.470Z,101153.19
2018-09-08T05:39:58.010Z,101156.52
2018-09-08T05:42:27.633Z,101161.30
2018-09-08T05:44:57.135Z,101163.13
2018-09-08T05:47:26.633Z,101167.00
2018-09-08T05:49:56.192Z,101173.33
2018-09-08T05:52:25.718Z,101177.10
2018-09-08T05:54:55.542Z,101178.47
2018-09-08T05:57:25.114Z,101185.20
2018-09-08T05:59:54.653Z,101181.98
2018-09-08T06:02:24.329Z,101188.59
2018-09-08T06:04:54.147Z,101192.70
2018-09-08T06:07:23.765Z,101193.69
2018-09-08T06:09:53.285Z,101185.74
2018-09-08T06:12:22.839Z,101192.64
2018-09-08T06:14:52.390Z,101195.63
2018-09-08T06:17:21.962Z,101192.87
2018-09-08T06:19:51.629Z,101191.50
2018-09-08T06:22:21.179Z,101191.67
2018-09-08T06:24:50.683Z,101191.52
2018-09-08T06:27:20.214Z,101188.52
2018-09-08T06:29:49.767Z,101188.74
2018-09-08T06:32:19.318Z,101183.51
2018-09-08T06:34:48.832Z,101183.00
2018-09-08T06:37:18.403Z,101184.78
2018-09-08T06:39:48.641Z,101192.47
2018-09-08T06:42:18.159Z,101193.63
2018-09-08T06:44:47.760Z,101197.27
2018-09-08T06:47:17.394Z,101201.83
2018-09-08T06:49:47.018Z,101206.72
2018-09-08T06:52:16.593Z,101210.66
2018-09-08T06:54:46.266Z,101210.81
2018-09-08T06:57:16.026Z,101213.97
2018-09-08T06:59:45.783Z,101217.75
2018-09-08T07:02:15.283Z,101217.75
2018-09-08T07:04:44.900Z,101214.82
2018-09-08T07:07:15.096Z,101201.84
2018-09-08T07:09:44.867Z,101205.65
2018-09-08T07:12:14.358Z,101209.16
2018-09-08T07:14:43.836Z,101206.41
2018-09-08T07:17:13.377Z,101201.51
2018-09-08T07:19:42.902Z,101189.25
2018-09-08T07:22:12.434Z,101195.78
2018-09-08T07:24:42.032Z,101206.44
2018-09-08T07:27:11.734Z,101192.06
2018-09-08T07:29:41.258Z,101199.16
2018-09-08T07:32:10.767Z,101193.59
2018-09-08T07:34:40.271Z,101199.61
2018-09-08T07:37:09.823Z,101196.36
2018-09-08T07:39:39.324Z,101206.66
2018-09-08T07:42:08.858Z,101202.94
2018-09-08T07:44:38.393Z,101202.87
2018-09-08T07:47:08.127Z,101205.34
2018-09-08T07:49:37.626Z,101205.33
2018-09-08T07:52:07.274Z,101211.42
2018-09-08T07:54:37.492Z,101211.31
2018-09-08T07:57:07.059Z,101210.14
2018-09-08T07:59:36.607Z,101207.23
2018-09-08T08:02:06.201Z,101206.27
2018-09-08T08:04:35.769Z,101214.05
2018-09-08T08:07:05.676Z,101209.54
2018-09-08T08:09:35.151Z,101220.67
2018-09-08T08:12:04.690Z,101215.15
2018-09-08T08:14:34.235Z,101214.30
2018-09-08T08:17:03.969Z,101221.10
2018-09-08T08:19:33.749Z,101222.55
2018-09-08T08:22:03.289Z,101218.48
2018-09-08T08:24:32.854Z,101225.51
2018-09-08T08:27:02.504Z,101225.75
2018-09-08T08:29:32.015Z,101223.98
2018-09-08T08:32:02.012Z,101231.53
2018-09-08T08:34:31.864Z,101228.62
2018-09-08T08:37:01.410Z,101234.56
2018-09-08T08:39:30.962Z,101232.78
2018-09-08T08:42:00.783Z,101233.52
2018-09-08T08:44:30.315Z,101239.93
2018-09-08T08:46:59.915Z,101238.95
2018-09-08T08:49:29.425Z,101233.06
2018-09-08T08:52:15.877Z,101243.56
2018-09-08T08:54:52.883Z,101236.42
2018-09-08T08:57:22.437Z,101240.91
2018-09-08T08:59:51.997Z,101239.73
2018-09-08T09:02:21.549Z,101235.27
2018-09-08T09:04:51.084Z,101243.11
2018-09-08T09:07:20.586Z,101246.53
2018-09-08T09:09:50.111Z,101242.63
2018-09-08T09:12:19.674Z,101246.67
2018-09-08T09:14:49.219Z,101244.03
2018-09-08T09:17:18.709Z,101246.20
2018-09-08T09:20:05.297Z,101245.41
2018-09-08T09:22:51.776Z,101243.61
2018-09-08T09:25:21.263Z,101245.46
2018-09-08T09:27:51.619Z,101243.27
2018-09-08T09:30:21.795Z,101246.78
2018-09-08T09:32:51.686Z,101232.66
2018-09-08T09:35:22.494Z,101243.77
2018-09-08T09:37:53.910Z,101243.86
2018-09-08T09:40:23.456Z,101242.23
2018-09-08T09:42:53.101Z,101235.56
2018-09-08T09:45:22.632Z,101243.75
2018-09-08T09:47:52.215Z,101234.88
2018-09-08T09:50:21.754Z,101233.92
2018-09-08T09:52:51.616Z,101236.88
2018-09-08T09:55:21.097Z,101235.88
2018-09-08T09:57:50.646Z,101231.50
2018-09-08T10:00:25.530Z,101234.95
2018-09-08T10:03:00.354Z,101240.13
2018-09-08T10:05:30.201Z,101233.80
2018-09-08T10:07:59.723Z,101244.57
2018-09-08T10:10:29.719Z,101240.16
2018-09-08T10:12:59.190Z,101244.61
2018-09-08T10:15:28.803Z,101248.45
2018-09-08T10:17:58.298Z,101242.82
2018-09-08T10:20:27.810Z,101250.13
2018-09-08T10:22:57.352Z,101247.25
2018-09-08T10:25:27.377Z,101258.73
2018-09-08T10:27:56.854Z,101249.52
2018-09-08T10:30:26.348Z,101248.78
2018-09-08T10:32:56.088Z,101254.92
2018-09-08T10:35:25.902Z,101248.05
2018-09-08T10:37:55.971Z,101248.63
2018-09-08T10:40:25.905Z,101249.44
2018-09-08T10:42:55.509Z,101243.97
2018-09-08T10:45:25.684Z,101251.54
2018-09-08T10:47:55.305Z,101241.49
2018-09-08T10:50:24.813Z,101248.30
2018-09-08T10:52:54.373Z,101247.94
2018-09-08T10:55:23.851Z,101250.82
2018-09-08T10:57:53.374Z,101256.52
2018-09-08T11:00:22.870Z,101257.64
2018-09-08T11:02:52.792Z,101247.32
2018-09-08T11:05:21.943Z,101239.68
2018-09-08T11:07:51.493Z,101248.69
2018-09-08T11:10:20.975Z,101241.17
2018-09-08T11:12:50.577Z,101249.77
2018-09-08T11:15:20.057Z,101225.93
2018-09-08T11:17:49.514Z,101237.22
2018-09-08T11:20:18.985Z,101241.80
2018-09-08T11:22:48.449Z,101243.03
2018-09-08T11:25:18.003Z,101237.73
2018-09-08T11:27:47.602Z,101230.48
2018-09-08T11:30:17.115Z,101235.98
2018-09-08T11:32:47.012Z,101229.83
2018-09-08T11:35:16.536Z,101233.64
2018-09-08T11:37:46.040Z,101232.31
2018-09-08T11:40:15.605Z,101232.82
2018-09-08T11:42:45.114Z,101225.08
2018-09-08T11:45:14.732Z,101212.20
2018-09-08T11:47:44.291Z,101213.41
2018-09-08T11:50:13.872Z,101216.41
2018-09-08T11:52:43.418Z,101223.54
2018-09-08T11:55:12.939Z,101219.21
2018-09-08T11:57:42.483Z,101216.93
2018-09-08T12:00:14.289Z,101226.63
2018-09-08T12:02:43.761Z,101217.74
2018-09-08T12:05:13.297Z,101217.80
2018-09-08T12:07:42.822Z,101217.48
2018-09-08T12:10:12.352Z,101223.22
2018-09-08T12:12:42.210Z,101221.17
2018-09-08T12:15:11.751Z,101224.58
2018-09-08T12:17:41.271Z,101218.17
2018-09-08T12:20:32.911Z,101216.47
2018-09-08T12:23:02.483Z,101211.86
2018-09-08T12:25:32.082Z,101205.78
2018-09-08T12:28:01.602Z,101200.41
2018-09-08T12:30:31.545Z,101200.13
2018-09-08T12:33:01.262Z,101208.20
2018-09-08T12:35:30.944Z,101206.98
2018-09-08T12:38:00.472Z,101197.29
2018-09-08T12:40:30.006Z,101195.64
2018-09-08T12:42:59.547Z,101198.22
2018-09-08T12:45:29.038Z,101200.27
2018-09-08T12:47:58.586Z,101193.30
2018-09-08T12:50:28.059Z,101186.20
2018-09-08T12:52:57.555Z,101188.23
2018-09-08T12:55:27.187Z,101181.73
2018-09-08T12:57:56.819Z,101166.95
2018-09-08T13:00:26.362Z,101182.29
2018-09-08T13:02:56.028Z,101184.84
2018-09-08T13:05:25.505Z,101174.71
2018-09-08T13:07:55.042Z,101171.02
2018-09-08T13:10:24.550Z,101171.78
2018-09-08T13:12:54.135Z,101165.86
2018-09-08T13:15:24.295Z,101169.36
2018-09-08T13:17:54.029Z,101158.27
2018-09-08T13:20:23.624Z,101159.94
2018-09-08T13:22:53.203Z,101151.64
2018-09-08T13:25:22.706Z,101148.98
2018-09-08T13:27:52.171Z,101150.78
2018-09-08T13:30:21.663Z,101150.16
2018-09-08T13:32:51.182Z,101154.14
2018-09-08T13:35:20.820Z,101146.80
2018-09-08T13:37:50.350Z,101146.67
2018-09-08T13:40:19.873Z,101144.87
2018-09-08T13:42:49.447Z,101148.61
2018-09-08T13:45:19.159Z,101150.28
2018-09-08T13:47:48.722Z,101156.56
2018-09-08T13:50:18.270Z,101158.98
2018-09-08T13:52:47.844Z,101149.55
2018-09-08T13:55:17.491Z,101157.05
2018-09-08T13:57:47.157Z,101155.25
2018-09-08T14:00:16.970Z,101151.27
2018-09-08T14:02:46.739Z,101149.33
2018-09-08T14:05:16.285Z,101153.31
2018-09-08T14:07:57.543Z,101159.84
2018-09-08T14:10:27.047Z,101161.41
2018-09-08T14:12:56.566Z,101151.37
2018-09-08T14:15:26.195Z,101161.64
2018-09-08T14:17:55.885Z,101165.15
2018-09-08T14:20:25.372Z,101162.59
2018-09-08T14:22:54.930Z,101155.47
2018-09-08T14:25:24.563Z,101163.50
2018-09-08T14:27:54.102Z,101173.05
2018-09-08T14:30:23.612Z,101166.27
2018-09-08T14:32:53.163Z,101167.73
2018-09-08T14:35:22.691Z,101163.15
2018-09-08T14:37:52.240Z,101165.60
2018-09-08T14:40:21.775Z,101170.87
2018-09-08T14:42:52.229Z,101171.53
2018-09-08T14:45:21.781Z,101181.14
2018-09-08T14:47:51.628Z,101191.16
2018-09-08T14:50:21.277Z,101183.70
2018-09-08T14:52:51.163Z,101165.71
2018-09-08T14:55:20.637Z,101165.00
2018-09-08T14:57:50.123Z,101164.39
2018-09-08T15:00:19.771Z,101162.59
2018-09-08T15:02:49.337Z,101165.86
2018-09-08T15:05:18.886Z,101170.07
2018-09-08T15:07:48.466Z,101164.77
2018-09-08T15:10:17.987Z,101169.45
2018-09-08T15:12:47.639Z,101168.87
2018-09-08T15:15:17.239Z,101156.42
2018-09-08T15:17:46.866Z,101164.59
2018-09-08T15:20:16.408Z,101160.00
2018-09-08T15:22:46.017Z,101161.44
2018-09-08T15:25:15.477Z,101160.37
2018-09-08T15:27:44.982Z,101157.95
2018-09-08T15:30:14.513Z,101161.32
2018-09-08T15:32:44.074Z,101166.47
2018-09-08T15:35:13.762Z,101153.69
2018-09-08T15:37:43.334Z,101159.48
2018-09-08T15:40:12.922Z,101153.94
2018-09-08T15:42:42.721Z,101152.61
2018-09-08T15:45:12.403Z,101142.96
2018-09-08T15:47:41.980Z,101134.39
2018-09-08T15:50:11.484Z,101133.06
2018-09-08T15:52:40.988Z,101116.39
2018-09-08T15:55:10.836Z,101142.84
2018-09-08T15:57:40.412Z,101150.91
2018-09-08T16:00:10.313Z,101145.74
2018-09-08T16:02:40.039Z,101154.03
2018-09-08T16:05:09.946Z,101146.91
2018-09-08T16:07:39.479Z,101146.56
2018-09-08T16:10:09.008Z,101150.05
2018-09-08T16:12:38.575Z,101141.77
2018-09-08T16:15:08.472Z,101148.15
2018-09-08T16:17:38.083Z,101143.19
2018-09-08T16:20:07.650Z,101141.63
2018-09-08T16:22:37.212Z,101140.91
2018-09-08T16:25:06.758Z,101143.66
2018-09-08T16:27:36.333Z,101150.42
2018-09-08T16:30:06.564Z,101155.02
2018-09-08T16:32:36.290Z,101160.67
2018-09-08T16:35:05.817Z,101152.69
2018-09-08T16:37:35.451Z,101149.30
2018-09-08T16:40:05.505Z,101151.36
2018-09-08T16:42:35.068Z,101160.77
2018-09-08T16:45:04.862Z,101158.22
2018-09-08T16:47:34.370Z,101157.73
2018-09-08T16:50:03.875Z,101157.85
2018-09-08T16:52:33.598Z,101156.98
2018-09-08T16:55:03.773Z,101150.38
2018-09-08T16:57:33.279Z,101151.09
2018-09-08T17:00:02.854Z,101145.05
2018-09-08T17:02:32.354Z,101135.92
2018-09-08T17:05:01.921Z,101152.63
2018-09-08T17:07:31.804Z,101150.22
2018-09-08T17:10:01.429Z,101153.48
2018-09-08T17:12:30.997Z,101145.77
2018-09-08T17:15:00.626Z,101146.26
2018-09-08T17:17:30.279Z,101145.63
2018-09-08T17:22:57.830Z,101136.61
2018-09-08T17:25:27.301Z,101135.53
2018-09-08T17:27:57.094Z,101133.95
2018-09-08T17:30:26.655Z,101132.63
2018-09-08T17:32:56.448Z,101139.03
2018-09-08T17:35:25.990Z,101131.93
2018-09-08T17:37:55.723Z,101141.78
2018-09-08T17:40:25.192Z,101141.66
2018-09-08T17:42:54.710Z,101139.95
2018-09-08T17:45:24.382Z,101138.53
2018-09-08T17:47:54.008Z,101129.48
2018-09-08T17:50:23.618Z,101131.28
2018-09-08T17:52:53.292Z,101130.44
2018-09-08T17:55:22.786Z,101134.63
2018-09-08T17:57:52.431Z,101142.96
2018-09-08T18:00:22.485Z,101129.81
2018-09-08T18:02:52.013Z,101129.09
2018-09-08T18:05:21.489Z,101133.91
2018-09-08T18:07:51.018Z,101132.72
2018-09-08T18:10:20.790Z,101137.39
2018-09-08T18:12:50.394Z,101141.71
2018-09-08T18:15:19.857Z,101144.48
2018-09-08T18:17:49.349Z,101144.94
2018-09-08T18:20:18.873Z,101141.91
2018-09-08T18:22:48.564Z,101157.80
2018-09-08T18:25:18.065Z,101149.83
2018-09-08T18:27:47.678Z,101147.52
2018-09-08T18:30:17.197Z,101147.41
2018-09-08T18:32:46.846Z,101159.32
2018-09-08T18:35:16.501Z,101150.75
2018-09-08T18:40:43.219Z,101156.27
2018-09-08T18:43:12.959Z,101159.38
2018-09-08T18:45:42.477Z,101156.95
2018-09-08T18:48:12.025Z,101163.70
2018-09-08T18:50:41.744Z,101163.92
2018-09-08T18:53:11.203Z,101162.82
2018-09-08T18:55:40.832Z,101163.55
2018-09-08T18:58:11.063Z,101156.33
2018-09-08T19:00:40.894Z,101168.80
2018-09-08T19:03:10.431Z,101172.17
2018-09-08T19:05:39.917Z,101171.42
2018-09-08T19:08:09.437Z,101176.11
2018-09-08T19:10:38.948Z,101171.03
2018-09-08T19:13:08.565Z,101171.03
2018-09-08T19:15:38.205Z,101166.68
2018-09-08T19:18:08.087Z,101168.01
2018-09-08T19:20:39.090Z,101170.30
2018-09-08T19:23:08.973Z,101173.42
2018-09-08T19:25:38.488Z,101173.90
2018-09-08T19:28:08.376Z,101181.58
2018-09-08T19:30:37.923Z,101176.25
2018-09-08T19:33:07.534Z,101180.95
2018-09-08T19:35:38.115Z,101182.74
2018-09-08T19:38:08.168Z,101182.61
2018-09-08T19:40:43.069Z,101176.20
2018-09-08T19:43:12.856Z,101168.14
2018-09-08T19:45:42.737Z,101170.06
2018-09-08T19:48:20.693Z,101180.77
2018-09-08T19:50:50.253Z,101171.25
2018-09-08T19:53:25.057Z,101172.19
2018-09-08T19:55:54.546Z,101166.90
2018-09-08T19:58:29.269Z,101170.02
2018-09-08T20:00:58.778Z,101172.78
2018-09-08T20:03:28.264Z,101171.94
2018-09-08T20:05:57.767Z,101172.53
2018-09-08T20:08:27.277Z,101171.42
2018-09-08T20:10:56.782Z,101176.23
2018-09-08T20:13:26.341Z,101177.66
2018-09-08T20:15:55.982Z,101185.24
2018-09-08T20:18:25.456Z,101181.84
2018-09-08T20:20:54.972Z,101187.98
2018-09-08T20:23:24.486Z,101191.56
2018-09-08T20:25:54.001Z,101193.39
2018-09-08T20:28:23.512Z,101189.64
2018-09-08T20:30:53.011Z,101197.45
2018-09-08T20:33:22.550Z,101192.02
2018-09-08T20:35:52.056Z,101196.81
2018-09-08T20:38:21.770Z,101190.05
2018-09-08T20:40:51.251Z,101196.76
2018-09-08T20:43:20.980Z,101204.00
2018-09-08T20:45:50.814Z,101197.42
2018-09-08T20:48:20.284Z,101209.44
2018-09-08T20:50:49.847Z,101207.88
2018-09-08T20:53:19.355Z,101210.00
2018-09-08T20:55:48.824Z,101209.27
2018-09-08T20:58:18.366Z,101200.74
2018-09-08T21:00:47.878Z,101175.89
2018-09-08T21:03:17.399Z,101166.02
2018-09-08T21:05:46.902Z,101179.65
2018-09-08T21:08:16.399Z,101183.23
2018-09-08T21:10:45.885Z,101183.70
2018-09-08T21:13:15.476Z,101182.12
2018-09-08T21:15:45.112Z,101195.19
2018-09-08T21:18:14.613Z,101194.95
2018-09-08T21:20:44.132Z,101199.61
2018-09-08T21:23:13.665Z,101204.25
2018-09-08T21:25:43.219Z,101205.66
2018-09-08T21:28:12.855Z,101207.48
2018-09-08T21:30:42.685Z,101207.36
2018-09-08T21:33:12.247Z,101215.47
2018-09-08T21:35:41.884Z,101217.14
2018-09-08T21:38:11.428Z,101214.89
2018-09-08T21:40:40.908Z,101211.92
2018-09-08T21:43:10.469Z,101210.13
2018-09-08T21:45:40.298Z,101215.69
2018-09-08T21:48:09.794Z,101210.60
2018-09-08T21:50:39.664Z,101210.25
2018-09-08T21:53:09.139Z,101209.22
2018-09-08T21:55:39.051Z,101210.47
2018-09-08T21:58:08.661Z,101202.47
2018-09-08T22:00:38.398Z,101206.55
2018-09-08T22:03:07.895Z,101209.86
2018-09-08T22:05:37.485Z,101204.31
2018-09-08T22:08:07.328Z,101204.58
2018-09-08T22:10:36.917Z,101203.52
2018-09-08T22:13:06.447Z,101202.86
2018-09-08T22:15:35.973Z,101199.48
2018-09-08T22:18:06.209Z,101200.48
2018-09-08T22:20:35.724Z,101195.31
2018-09-08T22:23:05.666Z,101197.95
2018-09-08T22:25:35.222Z,101195.31
2018-09-08T22:28:04.715Z,101191.55
2018-09-08T22:30:34.277Z,101192.60
2018-09-08T22:33:03.799Z,101192.34
2018-09-08T22:35:33.581Z,101193.27
2018-09-08T22:38:03.465Z,101193.74
2018-09-08T22:40:32.987Z,101191.02
2018-09-08T22:43:02.663Z,101190.05
2018-09-08T22:45:32.160Z,101191.02
2018-09-08T22:48:01.687Z,101194.52
2018-09-08T22:50:31.217Z,101197.83
2018-09-08T22:53:00.760Z,101196.80
2018-09-08T22:55:30.600Z,101199.59
2018-09-08T22:58:00.151Z,101198.47
2018-09-08T23:00:29.796Z,101197.34
2018-09-08T23:02:59.414Z,101201.20
2018-09-08T23:05:29.120Z,101202.44
2018-09-08T23:07:58.603Z,101201.42
2018-09-08T23:10:28.238Z,101202.47
2018-09-08T23:12:57.948Z,101194.55
2018-09-08T23:15:27.767Z,101195.95
2018-09-08T23:17:57.341Z,101194.47
2018-09-08T23:20:26.857Z,101195.23
2018-09-08T23:22:56.426Z,101200.70
2018-09-08T23:25:25.919Z,101200.08
2018-09-08T23:27:55.425Z,101200.05
2018-09-08T23:30:25.230Z,101200.80
2018-09-08T23:32:54.793Z,101207.23
2018-09-08T23:35:24.312Z,101209.29
2018-09-08T23:37:53.819Z,101212.67
2018-09-08T23:40:23.372Z,101220.98
2018-09-08T23:42:52.997Z,101213.25
2018-09-08T23:45:22.521Z,101205.25
2018-09-08T23:47:52.020Z,101209.65
2018-09-08T23:50:21.600Z,101201.73
2018-09-08T23:52:51.264Z,101209.45
2018-09-08T23:55:20.802Z,101197.61
2018-09-08T23:57:50.407Z,101208.25
